Crown Topaz — 3FAS9 — position and weather

sailwx.info

Track history (hours):
 
Tides and Currents Weather Stations Pressure Air Temp Water Temp Dewpoint Dewpoint Depression Visibility Wind Speed Wind Dir Waves Ship Positions

Crown Topaz

Last reported at 2016-Apr-22 03:17 UTC. Time now 2016-May-05 14:13 UTC.
Position N 17°29' W 063°08'.
Warning: this ship's position is 13 days out of date.

Length 152 m; draft 6.3 m.

Type: Cargo ship. MMSI: 357144000.

Date/timePositionNaut miles runAvg speedWind from/ knotsBaromVisibWave heightAir tempDewpointWater temp
2016-Apr-22 03:17N 17°29' W 063°08'7118.7
2016-Apr-21 23:28N 18°00' W 061°60'  
2016-Apr-17 09:26N 39°29' W 032°06'1618.5
2016-Apr-17 08:33N 39°38' W 031°48'1918.9
2016-Apr-17 07:33N 39°49' W 031°28'2018.7
2016-Apr-17 06:31N 40°00' W 031°07'  
2016-Apr-14 07:28N 49°40' W 003°56'1819.4
2016-Apr-14 06:33N 49°48' W 003°32'2019.8
2016-Apr-14 05:33N 49°57' W 003°04'2119.5
2016-Apr-14 04:29N 50°03' W 002°33'4118.2
2016-Apr-14 02:12N 50°15' W 001°31'1116.7
2016-Apr-14 01:33N 50°18' W 001°15'1616.4
2016-Apr-14 00:33N 50°23' W 000°50'1717.2
2016-Apr-13 23:33N 50°28' W 000°24'1918.6
2016-Apr-13 22:33N 50°32' E 000°04'2219.7
2016-Apr-13 21:27N 50°38' E 000°37'1820.0
2016-Apr-13 20:33N 50°49' E 000°60'1919.0
2016-Apr-13 19:33N 51°02' E 001°22'1717.5
2016-Apr-13 18:33N 51°13' E 001°44'1616.4
2016-Apr-13 17:33N 51°25' E 002°02'1715.9
2016-Apr-13 16:30N 51°22' E 002°29'1112.1
2016-Apr-13 15:33N 51°22' E 002°47'1312.9
2016-Apr-13 14:33N 51°24' E 003°08'1313.0
2016-Apr-13 13:33N 51°25' E 003°28'10 9.9
2016-Apr-13 12:33N 51°23' E 003°44'1211.5
2016-Apr-13 11:33N 51°24' E 004°02'1010.1
2016-Apr-13 10:33N 51°21' E 004°17'0 0.4
2016-Apr-13 09:33N 51°21' E 004°18'5 5.5
2016-Apr-13 08:33N 51°16' E 004°22'0 0.4
2016-Apr-13 07:33N 51°16' E 004°23'0 0.0
2016-Apr-13 06:33N 51°16' E 004°23'0 0.0
2016-Apr-13 05:33N 51°16' E 004°23'0 0.0
2016-Apr-13 04:33N 51°16' E 004°23'0 0.0
2016-Apr-13 03:33N 51°16' E 004°23'0 0.0
2016-Apr-13 02:33N 51°16' E 004°23'0 0.0
2016-Apr-13 01:33N 51°16' E 004°23'0 0.0
2016-Apr-13 00:33N 51°16' E 004°23'0 0.0
2016-Apr-12 23:33N 51°16' E 004°23'0 0.0
2016-Apr-12 22:33N 51°16' E 004°23'0 0.0
2016-Apr-12 21:33N 51°16' E 004°23'0 0.0
2016-Apr-12 20:33N 51°16' E 004°23'0 0.0
2016-Apr-12 19:33N 51°16' E 004°23'0 0.0
2016-Apr-12 18:33N 51°16' E 004°23'0 0.0
2016-Apr-12 17:33N 51°16' E 004°23'0 0.0
2016-Apr-12 16:33N 51°16' E 004°23'0 0.0
2016-Apr-12 15:33N 51°16' E 004°23'0 0.0
2016-Apr-12 14:33N 51°16' E 004°23'0 0.0
2016-Apr-12 13:33N 51°16' E 004°23'0 0.0
2016-Apr-12 12:33N 51°16' E 004°23'0 0.0
2016-Apr-12 11:33N 51°16' E 004°23'0 0.0
2016-Apr-12 10:33N 51°16' E 004°23'0 0.0
2016-Apr-12 09:33N 51°16' E 004°23'0 0.0
2016-Apr-12 08:33N 51°16' E 004°23'0 0.0
2016-Apr-12 07:33N 51°16' E 004°23'0 0.0
2016-Apr-12 06:33N 51°16' E 004°23'0 0.0
2016-Apr-12 05:33N 51°16' E 004°23'0 0.0
2016-Apr-12 04:33N 51°16' E 004°23'0 0.0
2016-Apr-12 03:33N 51°16' E 004°23'  
Track history (hours):
 
Tides and Currents Weather Stations Pressure Air Temp Water Temp Dewpoint Dewpoint Depression Visibility Wind Speed Wind Dir Waves Ship Positions

Crown Topaz

Last reported at 2016-Apr-22 03:17 UTC. Time now 2016-May-05 14:13 UTC.
Position N 17°29' W 063°08'.
Warning: this ship's position is 13 days out of date.

Length 152 m; draft 6.3 m.

Type: Cargo ship. MMSI: 357144000.

Date/timePositionNaut miles runAvg speedWind from/ knotsBaromVisibWave heightAir tempDewpointWater temp
2016-Apr-22 03:17N 17°29' W 063°08'7118.7
2016-Apr-21 23:28N 18°00' W 061°60'  
2016-Apr-17 09:26N 39°29' W 032°06'1618.5
2016-Apr-17 08:33N 39°38' W 031°48'1918.9
2016-Apr-17 07:33N 39°49' W 031°28'2018.7
2016-Apr-17 06:31N 40°00' W 031°07'  
2016-Apr-14 07:28N 49°40' W 003°56'1819.4
2016-Apr-14 06:33N 49°48' W 003°32'2019.8
2016-Apr-14 05:33N 49°57' W 003°04'2119.5
2016-Apr-14 04:29N 50°03' W 002°33'4118.2
2016-Apr-14 02:12N 50°15' W 001°31'1116.7
2016-Apr-14 01:33N 50°18' W 001°15'1616.4
2016-Apr-14 00:33N 50°23' W 000°50'1717.2
2016-Apr-13 23:33N 50°28' W 000°24'1918.6
2016-Apr-13 22:33N 50°32' E 000°04'2219.7
2016-Apr-13 21:27N 50°38' E 000°37'1820.0
2016-Apr-13 20:33N 50°49' E 000°60'1919.0
2016-Apr-13 19:33N 51°02' E 001°22'1717.5
2016-Apr-13 18:33N 51°13' E 001°44'1616.4
2016-Apr-13 17:33N 51°25' E 002°02'1715.9
2016-Apr-13 16:30N 51°22' E 002°29'1112.1
2016-Apr-13 15:33N 51°22' E 002°47'1312.9
2016-Apr-13 14:33N 51°24' E 003°08'1313.0
2016-Apr-13 13:33N 51°25' E 003°28'10 9.9
2016-Apr-13 12:33N 51°23' E 003°44'1211.5
2016-Apr-13 11:33N 51°24' E 004°02'1010.1
2016-Apr-13 10:33N 51°21' E 004°17'0 0.4
2016-Apr-13 09:33N 51°21' E 004°18'5 5.5
2016-Apr-13 08:33N 51°16' E 004°22'0 0.4
2016-Apr-13 07:33N 51°16' E 004°23'0 0.0
2016-Apr-13 06:33N 51°16' E 004°23'0 0.0
2016-Apr-13 05:33N 51°16' E 004°23'0 0.0
2016-Apr-13 04:33N 51°16' E 004°23'0 0.0
2016-Apr-13 03:33N 51°16' E 004°23'0 0.0
2016-Apr-13 02:33N 51°16' E 004°23'0 0.0
2016-Apr-13 01:33N 51°16' E 004°23'0 0.0
2016-Apr-13 00:33N 51°16' E 004°23'0 0.0
2016-Apr-12 23:33N 51°16' E 004°23'0 0.0
2016-Apr-12 22:33N 51°16' E 004°23'0 0.0
2016-Apr-12 21:33N 51°16' E 004°23'0 0.0
2016-Apr-12 20:33N 51°16' E 004°23'0 0.0
2016-Apr-12 19:33N 51°16' E 004°23'0 0.0
2016-Apr-12 18:33N 51°16' E 004°23'0 0.0
2016-Apr-12 17:33N 51°16' E 004°23'0 0.0
2016-Apr-12 16:33N 51°16' E 004°23'0 0.0
2016-Apr-12 15:33N 51°16' E 004°23'0 0.0
2016-Apr-12 14:33N 51°16' E 004°23'0 0.0
2016-Apr-12 13:33N 51°16' E 004°23'0 0.0
2016-Apr-12 12:33N 51°16' E 004°23'0 0.0
2016-Apr-12 11:33N 51°16' E 004°23'0 0.0
2016-Apr-12 10:33N 51°16' E 004°23'0 0.0
2016-Apr-12 09:33N 51°16' E 004°23'0 0.0
2016-Apr-12 08:33N 51°16' E 004°23'0 0.0
2016-Apr-12 07:33N 51°16' E 004°23'0 0.0
2016-Apr-12 06:33N 51°16' E 004°23'0 0.0
2016-Apr-12 05:33N 51°16' E 004°23'0 0.0
2016-Apr-12 04:33N 51°16' E 004°23'0 0.0
2016-Apr-12 03:33N 51°16' E 004°23'  

Dump ship's entire track history